Share

Albia, IA

KIAOSKAL3 Elev 856 ft | 41.29 °N, 92.65 °W | Change Station

Current weather conditions updated 28 seconds ago

Clear
Clear
39.3 °F
Feels Like 39 °F
N
0.0
Wind Variable Wind from NW
Gusts 0.0 mph
Sunrise 6:28 AM
Sunset 7:53 PM
Moon Waning Gibbous

Tomorrow is forecast to be Much Warmer than today.

Pressure 30.28 in
Visibility 10.0 miles
Clouds Clear
Windchill 39 °F
Dew Point 30 °F
Humidity 68%
Rainfall 0.00 in
Snow Depth Not available.
UV 0 out of 16
Pollen 9.60 out of 12
Air Quality Not available.
Flu Activity Sporadic
METAR KOXV 180435Z AUTO 05006KT 10SM CLR 05/M01 A3028 RMK AO2

More Conditions Fewer Conditions

Pressure 30.28 in
Visibility 10.0 miles
Clouds Clear
Windchill 39 °F
Dew Point 30 °F
Humidity 68%
Rainfall 0.00 in
Snow Depth Not available.
UV 0 out of 16
Pollen 9.60 out of 12
Air Quality Not available.
Flu Activity Sporadic
METAR KOXV 180435Z AUTO 05006KT 10SM CLR 05/M01 A3028 RMK AO2

More Conditions Fewer Conditions

10-Day Forecast

Almanac

Astronomy

Apr. 17, 2014 Rise Set
Actual Time 6:28 AM CDT 7:53 PM CDT
Civil Twilight 5:59 AM CDT 8:21 PM CDT
Nautical Twilight 5:25 AM CDT 8:56 PM CDT
Astronomical Twilight 4:49 AM CDT 9:33 PM CDT
Moon 10:40 PM CDT (4/17) 7:59 AM CDT (4/17)
Length of Visible Light 14h 21m
Length of Day
13h 24m
Tomorrow will be 2m 35s longer.
Waning Gibbous, 90% of the Moon is Illuminated
Apr 18
Waning Gibbous
Apr 22
Last Quarter
Apr 29
New
May 6
First Quarter
May 14
Full

Yesterday's Extremes

State Highs State Lows

Community

  • SUNRISE THROUGH THE TREES.
    SUNRISE THROUGH THE TREES.
  • Dog Wood Blossoms
    Dog Wood Blossoms
  • Morning Light
    Morning Light
  • New Day
    New Day
  • Lake Michigan Sunrise
    Lake Michigan Sunrise

WunderPhotos

Upload Photos

1,702,258 photos uploaded!

WunderBlogs® & News

Nearby

Snow Depth

Station Depth Elevation
No new snow has been reported.

Coastal Water Temperatures

Place Temperature
No Stations Reporting

Earthquake Activity

City Distance Mag. Time & Date
No recent earthquake activity has been reported nearby.
Minimum magnitude displayed is 2.5.

Nearby Weather Stations

Station Location Temp. Windchill Dew Point Humidity Wind Precip. Elev Updated Type
Oskaloosa, IA 39.3 °F 39 °F 30 °F 68% NW  at  0.0 mph 0.00 in / hr 856 ft 11:45 PM CDT Rapid Fire
Ottumwa, Ottumwa, IA 34.5 °F 34 °F 22 °F 61% NNW  at  0.0 mph 0.00 in / hr 669 ft 11:46 PM CDT Normal
East, Ottumwa, IA 40.8 °F 39 °F 31 °F 67% NNE  at  3.1 mph 0.00 in / hr 837 ft 11:46 PM CDT Rapid Fire
Lake Sundown, Moravia, IA 35.2 °F 35 °F 32 °F 87% SSW  at  0.0 mph 0.00 in / hr 945 ft 11:00 PM CDT Normal
HADS MET STATION AT RED ROCK LAKE IA, Pella, IA 42 °F 42 °F - - NE  at  1 mph 0.00 in / hr 779 ft 11:00 PM CDT MADIS

Show More Stations Show Fewer Stations

What do you think?

We're not finished. Please let us know what you like, what you don't like, and what you are still missing.